Time;durP1;ratioP1;P1;durP2;ratioP2;P2;SDS_P1;SDS_P2;PMS_P1;PMS_P2;Temp;Humidity;BMP_temperature;BMP_pressure;BME280_temperature;BME280_humidity;BME280_pressure;Samples;Min_cycle;Max_cycle;Signal;HPM_P1;HPM_P2
2021/08/11 00:01:27;;;;;;;4.75;2.92;;;;;;;21.51;63.80;101230.13;5082787;28;20376;-66
2021/08/11 00:03:52;;;;;;;4.38;2.78;;;;;;;21.51;63.70;101238.13;5090860;28;20427;-66
2021/08/11 00:06:19;;;;;;;4.20;2.95;;;;;;;21.50;63.57;101234.63;5083341;28;20650;-66
2021/08/11 00:08:45;;;;;;;3.63;2.40;;;;;;;21.50;63.33;101234.63;5080929;28;20130;-66
2021/08/11 00:11:10;;;;;;;4.63;2.65;;;;;;;21.51;63.72;101238.13;5090460;28;20036;-66
2021/08/11 00:13:36;;;;;;;4.55;2.90;;;;;;;21.51;63.36;101238.13;5090733;28;20486;-66
2021/08/11 00:16:02;;;;;;;5.65;3.33;;;;;;;21.52;63.33;101237.09;5076965;28;20035;-66
2021/08/11 00:18:28;;;;;;;4.78;3.03;;;;;;;21.50;63.51;101226.63;5090364;28;20044;-66
2021/08/11 00:20:53;;;;;;;4.18;2.60;;;;;;;21.51;63.72;101224.78;5078394;28;20039;-66
2021/08/11 00:23:19;;;;;;;4.10;2.80;;;;;;;21.51;63.62;101219.44;5090066;28;20494;-66
2021/08/11 00:25:44;;;;;;;6.43;3.05;;;;;;;21.50;63.37;101221.28;5083693;28;20467;-66
2021/08/11 00:28:09;;;;;;;3.70;2.70;;;;;;;21.50;63.51;101217.78;5089152;28;20044;-66
2021/08/11 00:30:35;;;;;;;4.20;2.83;;;;;;;21.51;63.72;101224.78;5090080;28;20027;-66
2021/08/11 00:33:00;;;;;;;3.70;2.42;;;;;;;21.50;63.43;101221.28;5077052;28;20443;-67
2021/08/11 00:35:26;;;;;;;3.60;2.53;;;;;;;21.50;63.31;101202.59;5090003;28;20047;-67
2021/08/11 00:37:52;;;;;;;4.28;2.58;;;;;;;21.51;63.39;101208.75;5076726;28;20063;-67
2021/08/11 00:40:19;;;;;;;5.07;2.80;;;;;;;21.51;63.50;101198.09;5089309;28;20036;-67
2021/08/11 00:42:45;;;;;;;4.13;2.80;;;;;;;21.50;63.57;101205.28;5090958;28;20467;-65
2021/08/11 00:45:13;;;;;;;3.55;2.60;;;;;;;21.52;63.20;101215.75;5089767;28;20028;-65
2021/08/11 00:47:39;;;;;;;3.88;2.75;;;;;;;21.50;63.22;101213.28;5090555;28;20170;-65
2021/08/11 00:50:07;;;;;;;3.95;2.70;;;;;;;21.51;63.46;101206.09;5083580;28;20036;-65
2021/08/11 00:52:32;;;;;;;3.55;2.78;;;;;;;21.51;63.08;101214.94;5086995;28;20038;-65
2021/08/11 00:54:58;;;;;;;3.92;2.53;;;;;;;21.51;63.30;101200.75;5083581;28;20028;-65
2021/08/11 00:57:26;;;;;;;3.53;2.30;;;;;;;21.51;63.24;101206.09;5090197;28;20040;-65
2021/08/11 00:59:53;;;;;;;4.72;2.83;;;;;;;21.50;63.19;101210.63;5083102;28;20020;-65
2021/08/11 01:02:20;;;;;;;4.38;2.53;;;;;;;21.50;63.00;101201.78;5083037;28;20028;-65
2021/08/11 01:04:48;;;;;;;4.00;2.55;;;;;;;21.51;63.06;101198.09;5083467;28;20059;-65
2021/08/11 01:07:16;;;;;;;3.85;2.60;;;;;;;21.51;63.03;101195.41;5088859;28;20514;-65
2021/08/11 01:09:42;;;;;;;3.92;2.47;;;;;;;21.51;63.46;101198.09;5079861;28;20040;-65
2021/08/11 01:12:08;;;;;;;5.15;2.50;;;;;;;21.50;63.22;101202.59;5085172;28;20073;-65
2021/08/11 01:14:34;;;;;;;4.05;2.38;;;;;;;21.50;63.50;101191.09;5083458;28;20039;-65
2021/08/11 01:17:03;;;;;;;3.53;2.35;;;;;;;21.50;63.15;101201.78;5089661;28;20039;-66
2021/08/11 01:19:30;;;;;;;4.03;2.45;;;;;;;21.50;63.37;101197.25;5080382;28;20514;-66
2021/08/11 01:22:11;;;;;;;4.60;2.17;;;;;;;21.49;63.31;101200.13;5082069;28;20036;-66
2021/08/11 01:24:52;;;;;;;6.43;3.08;;;;;;;21.47;63.44;101189.66;5082744;28;20032;-66
2021/08/11 01:27:43;;;;;;;7.50;2.50;;;;;;;21.49;64.04;101187.63;5089852;28;20027;-66
2021/08/11 01:30:49;;;;;;;3.65;2.28;;;;;;;21.46;63.90;101181.81;5086163;28;20051;-66
2021/08/11 01:33:44;;;;;;;4.88;2.08;;;;;;;21.47;64.36;101186.16;5026912;28;20037;-66
2021/08/11 01:36:25;;;;;;;7.90;2.53;;;;;;;21.48;64.01;101185.16;5082641;28;20038;-66
2021/08/11 01:39:00;;;;;;;3.78;2.58;;;;;;;21.49;64.27;101187.63;5078043;28;20024;-66
2021/08/11 01:41:35;;;;;;;4.55;2.38;;;;;;;21.49;64.28;101190.28;5087939;28;20039;-66
2021/08/11 01:44:01;;;;;;;3.30;2.22;;;;;;;21.50;64.02;101181.25;5085025;28;20040;-66
2021/08/11 01:46:28;;;;;;;4.03;2.25;;;;;;;21.51;64.24;101182.06;5078796;28;20456;-66
2021/08/11 01:48:58;;;;;;;4.03;2.17;;;;;;;21.50;64.50;101181.25;5070877;28;20062;-66
2021/08/11 01:51:23;;;;;;;4.38;2.65;;;;;;;21.51;64.27;101176.72;5082217;28;20032;-66
2021/08/11 01:53:50;;;;;;;3.92;2.17;;;;;;;21.51;64.34;101169.53;5077809;28;20317;-66
2021/08/11 01:56:17;;;;;;;3.83;2.40;;;;;;;21.51;64.00;101169.53;5089695;28;20048;-67
2021/08/11 01:58:44;;;;;;;4.05;2.40;;;;;;;21.51;64.25;101169.53;5075485;28;20070;-66
2021/08/11 02:01:11;;;;;;;4.35;2.45;;;;;;;21.51;64.07;101166.88;5080328;28;20631;-66
2021/08/11 02:03:37;;;;;;;3.92;2.45;;;;;;;21.51;64.25;101164.22;5080042;28;20476;-66
2021/08/11 02:06:03;;;;;;;2.97;1.92;;;;;;;21.51;64.31;101153.53;5083116;28;20048;-67
2021/08/11 02:08:30;;;;;;;3.50;2.35;;;;;;;21.51;64.27;101145.53;5082999;28;20032;-66
2021/08/11 02:10:59;;;;;;;7.00;2.00;;;;;;;21.50;64.43;101143.88;5079311;28;20490;-66
2021/08/11 02:13:26;;;;;;;3.55;2.20;;;;;;;21.51;64.05;101148.19;5083849;28;20427;-66
2021/08/11 02:15:52;;;;;;;5.07;2.13;;;;;;;21.51;64.28;101145.53;5079621;28;20506;-66
2021/08/11 02:18:18;;;;;;;4.47;2.28;;;;;;;21.51;64.19;101134.03;5083147;28;20049;-66
2021/08/11 02:20:44;;;;;;;3.40;2.30;;;;;;;21.51;64.10;101134.84;5080973;28;20031;-66
2021/08/11 02:23:10;;;;;;;3.60;2.20;;;;;;;21.51;64.16;101140.19;5077689;28;20043;-66
2021/08/11 02:25:47;;;;;;;6.15;2.42;;;;;;;21.50;64.14;101124.38;5089132;28;20032;-66
2021/08/11 02:28:22;;;;;;;3.88;2.20;;;;;;;21.50;64.16;101122.53;5085648;28;20039;-66
2021/08/11 02:30:48;;;;;;;3.28;2.28;;;;;;;21.51;64.01;101126.84;5088336;28;20383;-66
2021/08/11 02:33:26;;;;;;;3.67;2.30;;;;;;;21.49;63.84;101120.06;5088372;28;20032;-66
2021/08/11 02:35:57;;;;;;;3.75;2.35;;;;;;;21.50;64.31;101117.19;5089080;28;20139;-66
2021/08/11 02:38:39;;;;;;;3.60;2.50;;;;;;;21.47;63.85;101106.91;5085225;28;20031;-66
2021/08/11 02:41:11;;;;;;;4.60;2.08;;;;;;;21.50;64.12;101111.84;5077618;28;20027;-66
2021/08/11 02:43:47;;;;;;;4.18;2.05;;;;;;;21.51;64.18;101102.81;5088020;28;20104;-66
2021/08/11 02:46:17;;;;;;;4.00;2.22;;;;;;;21.50;64.02;101111.03;5080137;28;20077;-66
2021/08/11 02:48:49;;;;;;;3.40;2.22;;;;;;;21.51;63.87;101105.47;5087268;28;20032;-67
2021/08/11 02:51:15;;;;;;;3.33;2.20;;;;;;;21.51;64.08;101097.47;5086099;28;20049;-66
2021/08/11 02:53:42;;;;;;;3.55;2.33;;;;;;;21.51;64.15;101086.81;5084814;28;20037;-66
2021/08/11 02:56:08;;;;;;;3.47;1.90;;;;;;;21.51;64.09;101097.47;5078001;28;20032;-66
2021/08/11 02:58:36;;;;;;;4.90;2.65;;;;;;;21.51;64.03;101088.66;5071901;28;20085;-66
2021/08/11 03:01:02;;;;;;;3.65;2.20;;;;;;;21.51;63.92;101091.31;5088969;28;20042;-66
2021/08/11 03:03:27;;;;;;;3.33;2.13;;;;;;;21.50;64.18;101085.16;5093122;28;20040;-66
2021/08/11 03:05:53;;;;;;;3.13;2.05;;;;;;;21.50;63.79;101090.50;5088921;28;20448;-66
2021/08/11 03:08:19;;;;;;;3.00;2.20;;;;;;;21.51;64.28;101088.66;5083859;28;20448;-66
2021/08/11 03:10:45;;;;;;;4.00;2.38;;;;;;;21.50;64.24;101090.50;5088733;28;20110;-66
2021/08/11 03:13:13;;;;;;;3.38;1.92;;;;;;;21.51;64.02;101091.31;5086793;28;20115;-66
2021/08/11 03:15:42;;;;;;;3.00;2.08;;;;;;;21.50;64.10;101079.00;5088576;28;20032;-66
2021/08/11 03:18:09;;;;;;;3.25;1.90;;;;;;;21.51;64.03;101084.13;5080793;28;20093;-66
2021/08/11 03:20:38;;;;;;;2.28;1.88;;;;;;;21.51;64.04;101069.97;5092938;28;20063;-66
2021/08/11 03:23:04;;;;;;;3.28;2.10;;;;;;;21.51;63.94;101061.94;5087041;28;20801;-66
2021/08/11 03:25:29;;;;;;;3.05;1.88;;;;;;;21.50;63.79;101055.78;5085377;28;20095;-66
2021/08/11 03:27:55;;;;;;;3.20;2.00;;;;;;;21.50;64.01;101053.13;5092244;28;20743;-66
2021/08/11 03:30:20;;;;;;;2.30;1.63;;;;;;;21.51;64.23;101049.44;5085146;28;20103;-66
2021/08/11 03:32:46;;;;;;;3.05;2.10;;;;;;;21.50;63.84;101045.13;5087481;28;20083;-66
2021/08/11 03:35:11;;;;;;;2.90;1.90;;;;;;;21.50;63.85;101052.31;5084568;28;20040;-66
2021/08/11 03:37:37;;;;;;;2.67;2.13;;;;;;;21.50;63.79;101054.97;5082947;28;20028;-66
2021/08/11 03:40:03;;;;;;;3.22;2.10;;;;;;;21.50;63.93;101063.81;5088436;28;20515;-66
2021/08/11 03:42:28;;;;;;;2.10;1.70;;;;;;;21.50;64.13;101050.47;5080377;28;20490;-66
2021/08/11 03:44:53;;;;;;;3.40;2.20;;;;;;;21.51;64.16;101053.94;5092242;28;20490;-66
2021/08/11 03:47:19;;;;;;;4.43;2.30;;;;;;;21.50;63.86;101042.44;5084103;28;20514;-67
2021/08/11 03:49:46;;;;;;;2.70;2.10;;;;;;;21.50;63.80;101031.78;5084533;28;20035;-66
2021/08/11 03:52:12;;;;;;;3.47;2.13;;;;;;;21.50;63.87;101031.78;5082992;28;20040;-66
2021/08/11 03:54:37;;;;;;;3.60;1.90;;;;;;;21.50;64.17;101037.13;5092272;28;20044;-66
2021/08/11 03:57:03;;;;;;;2.85;1.98;;;;;;;21.50;64.09;101023.75;5077563;28;20029;-66
2021/08/11 03:59:29;;;;;;;3.53;1.92;;;;;;;21.50;64.02;101026.44;5090811;28;20772;-66
2021/08/11 04:01:55;;;;;;;4.22;2.28;;;;;;;21.50;63.81;101026.44;5076024;28;20040;-66
2021/08/11 04:04:21;;;;;;;2.85;1.88;;;;;;;21.50;63.90;101033.63;5091713;28;20047;-66
2021/08/11 04:06:46;;;;;;;2.97;2.22;;;;;;;21.50;64.04;101029.09;5087948;28;20032;-66
2021/08/11 04:09:12;;;;;;;2.67;1.88;;;;;;;21.50;63.87;101030.94;5089061;28;20043;-66
2021/08/11 04:11:37;;;;;;;2.80;1.88;;;;;;;21.50;64.28;101028.28;5090731;28;20040;-66
2021/08/11 04:14:03;;;;;;;2.78;2.00;;;;;;;21.50;63.94;101037.13;5081128;28;20040;-66
2021/08/11 04:16:28;;;;;;;3.58;1.88;;;;;;;21.49;63.95;101018.63;5089519;28;20026;-66
2021/08/11 04:18:54;;;;;;;2.67;1.95;;;;;;;21.50;64.26;101021.09;5091001;28;20054;-66
2021/08/11 04:21:19;;;;;;;3.38;2.20;;;;;;;21.50;63.88;101014.94;5089796;28;20206;-66
2021/08/11 04:23:45;;;;;;;3.00;2.10;;;;;;;21.50;63.77;101012.28;5086484;28;20044;-66
2021/08/11 04:26:10;;;;;;;3.20;2.13;;;;;;;21.50;63.89;100999.75;5085254;28;20376;-67
2021/08/11 04:28:35;;;;;;;2.70;1.92;;;;;;;21.49;63.93;101003.44;5086576;28;20040;-66
2021/08/11 04:31:01;;;;;;;2.88;1.90;;;;;;;21.50;64.24;100991.75;5090913;28;20028;-66
2021/08/11 04:33:26;;;;;;;4.55;2.30;;;;;;;21.50;64.25;100999.75;5079937;28;20039;-65
2021/08/11 04:35:52;;;;;;;3.47;2.20;;;;;;;21.51;63.89;100989.88;5080535;28;20043;-66
2021/08/11 04:38:18;;;;;;;3.45;1.90;;;;;;;21.49;64.05;100998.09;5085167;28;20384;-66
2021/08/11 04:40:43;;;;;;;3.78;2.03;;;;;;;21.49;64.22;100997.28;5091518;28;20085;-66
2021/08/11 04:43:09;;;;;;;3.67;2.10;;;;;;;21.51;63.92;100989.88;5076040;28;20051;-66
2021/08/11 04:45:39;;;;;;;3.55;2.05;;;;;;;21.49;64.00;100998.09;5076822;28;20032;-66
2021/08/11 04:48:05;;;;;;;3.50;1.73;;;;;;;21.50;64.23;100999.75;5077099;28;20471;-66
2021/08/11 04:50:31;;;;;;;6.80;2.10;;;;;;;21.50;64.22;100996.25;5087926;28;20036;-66
2021/08/11 04:52:56;;;;;;;2.67;1.90;;;;;;;21.50;64.03;100993.59;5090874;28;20498;-66
2021/08/11 04:55:22;;;;;;;3.75;2.13;;;;;;;21.49;64.24;100998.09;5088149;28;20058;-66
2021/08/11 04:57:47;;;;;;;3.63;1.95;;;;;;;21.49;63.75;100998.09;5090944;28;20028;-66
2021/08/11 05:00:13;;;;;;;2.35;1.88;;;;;;;21.50;64.32;100998.91;5088449;28;20044;-67
2021/08/11 05:02:38;;;;;;;2.75;2.08;;;;;;;21.50;64.20;100994.41;5089084;28;20035;-66
2021/08/11 05:05:06;;;;;;;3.53;2.13;;;;;;;21.49;63.78;101003.44;5090491;28;20441;-66
2021/08/11 05:07:31;;;;;;;3.22;1.90;;;;;;;21.49;63.84;100999.94;5087312;28;20722;-66
2021/08/11 05:09:57;;;;;;;3.90;1.90;;;;;;;21.49;63.79;101003.44;5089022;28;20036;-66
2021/08/11 05:12:23;;;;;;;2.83;1.90;;;;;;;21.48;63.87;101007.13;5084156;28;21321;-66
2021/08/11 05:14:50;;;;;;;3.83;2.03;;;;;;;21.49;63.78;101011.44;5079418;28;20047;-66
2021/08/11 05:17:20;;;;;;;2.80;2.00;;;;;;;21.50;63.80;101012.28;5087911;28;20032;-66
2021/08/11 05:19:46;;;;;;;3.92;1.90;;;;;;;21.49;63.97;101008.78;5084750;28;20384;-66
2021/08/11 05:22:11;;;;;;;3.35;1.75;;;;;;;21.49;63.74;101024.78;5089383;28;20039;-67
2021/08/11 05:24:37;;;;;;;2.65;1.85;;;;;;;21.49;64.02;101022.13;5087170;28;20031;-66
2021/08/11 05:27:02;;;;;;;2.90;1.80;;;;;;;21.50;64.18;101014.94;5080484;28;20480;-66
2021/08/11 05:29:31;;;;;;;3.03;2.00;;;;;;;21.49;64.03;101021.31;5089645;28;20737;-66
2021/08/11 05:31:56;;;;;;;3.60;1.70;;;;;;;21.49;63.95;101015.97;5078098;28;20036;-66
2021/08/11 05:34:22;;;;;;;2.45;1.70;;;;;;;21.50;63.73;101018.44;5089279;28;20039;-66
2021/08/11 05:36:47;;;;;;;2.38;1.60;;;;;;;21.49;63.51;101013.28;5075239;28;20137;-66
2021/08/11 05:39:13;;;;;;;3.20;1.98;;;;;;;21.49;63.98;101011.44;5081947;28;20101;-66
2021/08/11 05:41:38;;;;;;;2.83;1.90;;;;;;;21.50;63.85;101010.41;5085457;28;20047;-66
2021/08/11 05:44:05;;;;;;;3.22;1.63;;;;;;;21.49;63.70;101008.78;5081107;28;20111;-66
2021/08/11 05:46:31;;;;;;;3.28;1.83;;;;;;;21.49;63.92;101002.63;5082055;28;20458;-67
2021/08/11 05:48:56;;;;;;;3.83;1.83;;;;;;;21.49;63.87;101007.97;5083017;28;20040;-66
2021/08/11 05:51:22;;;;;;;2.67;1.80;;;;;;;21.48;63.57;100996.47;5080204;28;20051;-66
2021/08/11 05:53:47;;;;;;;2.53;1.75;;;;;;;21.49;63.66;100994.63;5089073;28;20032;-66
2021/08/11 05:56:13;;;;;;;3.40;1.75;;;;;;;21.48;63.70;100991.13;5090103;28;20055;-66
2021/08/11 05:58:38;;;;;;;3.63;1.85;;;;;;;21.49;63.58;101000.78;5084217;28;20444;-66
2021/08/11 06:01:04;;;;;;;3.10;1.77;;;;;;;21.48;63.65;100999.13;5077228;28;20040;-66
2021/08/11 06:03:29;;;;;;;3.30;1.90;;;;;;;21.49;63.60;100989.28;5075538;28;20032;-66
2021/08/11 06:05:55;;;;;;;2.70;1.85;;;;;;;21.47;63.58;100994.81;5086167;28;20443;-66
2021/08/11 06:08:20;;;;;;;2.70;1.85;;;;;;;21.49;63.77;100990.09;5077679;28;20154;-66
2021/08/11 06:10:46;;;;;;;3.28;1.80;;;;;;;21.49;63.60;101007.97;5069266;28;20521;-66
2021/08/11 06:13:11;;;;;;;3.42;2.15;;;;;;;21.48;63.50;101009.81;5089152;28;20039;-66
2021/08/11 06:15:36;;;;;;;2.88;1.77;;;;;;;21.48;63.94;101012.47;5066434;28;20043;-66
2021/08/11 06:18:02;;;;;;;3.17;1.65;;;;;;;21.48;63.89;101009.81;5083590;28;20102;-66
2021/08/11 06:20:27;;;;;;;4.70;2.13;;;;;;;21.49;63.88;101000.78;5081580;28;20497;-66
2021/08/11 06:22:53;;;;;;;2.95;2.00;;;;;;;21.48;63.87;100991.13;5087502;28;20081;-66
2021/08/11 06:25:18;;;;;;;2.83;1.98;;;;;;;21.49;64.04;100997.28;5085091;28;20031;-66
2021/08/11 06:27:44;;;;;;;2.95;1.73;;;;;;;21.49;64.06;100997.28;5085631;28;20051;-66
2021/08/11 06:30:11;;;;;;;2.75;1.90;;;;;;;21.49;63.98;100987.44;5070568;28;20040;-66
2021/08/11 06:32:37;;;;;;;2.90;1.90;;;;;;;21.48;63.80;100968.94;5083511;28;20036;-68
2021/08/11 06:35:03;;;;;;;2.13;1.70;;;;;;;21.49;64.08;100981.28;5088839;28;20054;-66
2021/08/11 06:37:28;;;;;;;2.72;1.60;;;;;;;21.48;63.75;100974.28;5093319;28;20040;-66
2021/08/11 06:39:54;;;;;;;2.22;1.55;;;;;;;21.48;63.69;100982.28;5081017;28;20407;-66
2021/08/11 06:42:19;;;;;;;2.47;1.73;;;;;;;21.48;64.03;100975.09;5086000;28;20072;-66
2021/08/11 06:44:45;;;;;;;2.05;1.52;;;;;;;21.48;64.13;100983.13;5086409;28;20054;-69
2021/08/11 06:47:10;;;;;;;3.60;1.85;;;;;;;21.47;63.70;100977.97;5091276;28;20040;-67
2021/08/11 06:49:36;;;;;;;3.40;2.10;;;;;;;21.48;63.98;100977.78;5065832;28;20068;-69
2021/08/11 06:52:01;;;;;;;4.03;1.67;;;;;;;21.49;63.97;100970.59;5074191;28;20032;-66
2021/08/11 06:54:27;;;;;;;3.25;2.13;;;;;;;21.49;64.05;100959.91;5092747;28;20420;-66
2021/08/11 06:56:53;;;;;;;2.50;1.75;;;;;;;21.49;64.22;100967.91;5074458;28;20039;-66
2021/08/11 06:59:19;;;;;;;3.20;1.80;;;;;;;21.49;64.29;100962.59;5091343;28;20054;-66
2021/08/11 07:01:44;;;;;;;5.13;1.95;;;;;;;21.48;64.10;100969.78;5082220;28;20041;-66
2021/08/11 07:09:22;;;;;;;5.03;1.63;;;;;;;21.49;64.42;100971.41;5325252;22;20060;-65
2021/08/11 07:11:48;;;;;;;6.05;1.88;;;;;;;21.50;64.56;100982.91;5086853;28;20036;-66
2021/08/11 07:14:13;;;;;;;10.23;2.25;;;;;;;21.51;64.56;100979.22;5077382;28;20043;-68
2021/08/11 07:16:38;;;;;;;4.80;1.60;;;;;;;21.51;64.90;100989.88;5060083;28;20082;-65
2021/08/11 07:19:04;;;;;;;3.63;1.60;;;;;;;21.52;64.94;100988.84;5065513;28;20110;-64
2021/08/11 07:21:29;;;;;;;3.53;2.08;;;;;;;21.52;64.67;100981.66;5082376;28;20032;-65
2021/08/11 07:23:55;;;;;;;6.07;1.60;;;;;;;21.53;65.17;100979.81;5569863;22;20126;-66
2021/08/11 07:26:20;;;;;;;5.10;1.90;;;;;;;21.52;65.20;100987.00;5076563;28;20045;-66
2021/08/11 07:28:46;;;;;;;4.65;1.92;;;;;;;21.53;65.19;100987.84;5089877;28;20047;-66
2021/08/11 07:31:12;;;;;;;4.45;1.70;;;;;;;21.53;65.40;100979.81;5092121;28;20067;-65
2021/08/11 07:33:37;;;;;;;3.92;2.05;;;;;;;21.53;65.56;100979.81;5086281;28;20039;-66
2021/08/11 07:36:03;;;;;;;4.93;2.03;;;;;;;21.53;65.64;100980.66;5083682;28;20457;-64
2021/08/11 07:38:28;;;;;;;3.97;1.60;;;;;;;21.53;65.41;100971.81;5082248;28;20386;-65
2021/08/11 07:40:54;;;;;;;6.13;1.83;;;;;;;21.52;65.56;100957.66;5091357;28;20759;-66
2021/08/11 07:43:20;;;;;;;8.88;2.20;;;;;;;21.53;65.63;100956.63;5086897;28;20432;-65
2021/08/11 07:45:45;;;;;;;8.98;2.50;;;;;;;21.53;65.67;100967.28;5078397;28;20399;-65
2021/08/11 07:48:11;;;;;;;11.65;3.10;;;;;;;21.53;65.90;100964.63;5071716;28;20054;-65
2021/08/11 07:50:37;;;;;;;11.25;3.00;;;;;;;21.55;66.10;100960.94;5080903;28;20032;-66
2021/08/11 07:53:04;;;;;;;10.93;3.03;;;;;;;21.53;66.11;100967.28;5089220;28;20035;-65
2021/08/11 07:55:30;;;;;;;10.07;2.90;;;;;;;21.54;66.14;100960.09;5091281;28;20040;-66
2021/08/11 07:57:55;;;;;;;8.52;2.70;;;;;;;21.55;66.30;100958.25;5087905;28;20039;-65
2021/08/11 08:00:22;;;;;;;12.85;3.20;;;;;;;21.55;66.42;100958.25;5084894;28;20411;-65
2021/08/11 08:02:48;;;;;;;11.15;2.65;;;;;;;21.57;66.34;100974.88;5080179;28;20032;-65
2021/08/11 08:05:14;;;;;;;10.15;2.90;;;;;;;21.56;66.65;100967.91;5077380;28;20107;-65
2021/08/11 08:07:39;;;;;;;11.52;2.38;;;;;;;21.56;66.30;100967.91;5077333;28;20028;-66
2021/08/11 08:10:06;;;;;;;12.85;2.80;;;;;;;21.55;66.74;100964.41;5056138;28;20040;-65
2021/08/11 08:12:32;;;;;;;13.57;3.15;;;;;;;21.55;66.77;100947.59;5081516;28;20024;-65
2021/08/11 08:14:57;;;;;;;11.35;2.90;;;;;;;21.56;66.53;100952.72;5072115;28;20342;-65
2021/08/11 08:17:23;;;;;;;11.18;3.15;;;;;;;21.55;66.83;100948.41;5085064;28;20028;-66
2021/08/11 08:19:48;;;;;;;9.85;2.92;;;;;;;21.55;66.39;100945.72;5089434;28;20114;-66
2021/08/11 08:22:17;;;;;;;7.35;2.53;;;;;;;21.55;66.78;100945.72;5071864;28;20032;-65
2021/08/11 08:24:46;;;;;;;7.93;2.60;;;;;;;21.55;66.54;100939.56;5086248;28;20052;-65
2021/08/11 08:27:12;;;;;;;6.75;2.15;;;;;;;21.55;66.26;100935.06;5092100;28;20380;-65
2021/08/11 08:29:37;;;;;;;6.25;2.13;;;;;;;21.56;66.35;100930.53;5075558;28;20048;-66
2021/08/11 08:32:03;;;;;;;10.80;2.72;;;;;;;21.55;66.65;100935.06;5084899;28;20104;-66
2021/08/11 08:34:29;;;;;;;9.40;3.28;;;;;;;21.54;66.74;100936.09;5080323;28;20032;-66
2021/08/11 08:36:54;;;;;;;6.65;2.33;;;;;;;21.56;66.55;100943.88;5082807;28;20617;-65
2021/08/11 08:39:20;;;;;;;10.77;2.35;;;;;;;21.56;66.80;100946.56;5071206;28;20085;-66
2021/08/11 08:41:46;;;;;;;6.88;2.50;;;;;;;21.55;66.75;100951.06;5090291;28;20040;-66
2021/08/11 08:44:13;;;;;;;8.07;2.58;;;;;;;21.56;66.57;100950.03;5090162;28;20060;-66
2021/08/11 08:46:41;;;;;;;10.35;2.70;;;;;;;21.56;66.70;100949.22;5090033;28;20039;-65
2021/08/11 08:49:08;;;;;;;7.35;2.22;;;;;;;21.55;66.95;100953.75;5071971;28;20024;-66
2021/08/11 08:51:41;;;;;;;6.82;2.05;;;;;;;21.55;66.69;100950.25;5090250;28;20040;-65
2021/08/11 08:54:06;;;;;;;6.65;2.42;;;;;;;21.56;66.94;100954.56;5088982;28;20058;-66
2021/08/11 08:56:32;;;;;;;6.72;2.15;;;;;;;21.55;66.65;100958.25;5083829;28;20458;-66
2021/08/11 08:58:59;;;;;;;8.23;2.00;;;;;;;21.55;66.68;100951.06;5090031;28;20478;-65
2021/08/11 09:01:24;;;;;;;7.22;2.65;;;;;;;21.55;66.53;100955.59;5078425;28;20115;-65
2021/08/11 09:03:50;;;;;;;7.20;2.05;;;;;;;21.54;66.82;100946.75;5090907;28;20032;-66
2021/08/11 09:06:15;;;;;;;5.60;1.85;;;;;;;21.54;66.49;100949.44;5091151;28;20064;-67
2021/08/11 09:08:57;;;;;;;3.53;1.80;;;;;;;21.50;66.70;100949.03;5090660;28;20039;-66
2021/08/11 09:11:23;;;;;;;4.82;1.90;;;;;;;21.54;66.22;100941.44;5091358;28;20111;-67
2021/08/11 09:14:27;;;;;;;6.05;2.30;;;;;;;21.49;66.24;100952.72;5091078;28;20024;-66
2021/08/11 09:16:54;;;;;;;6.95;2.42;;;;;;;21.53;66.19;100956.63;5079958;28;20058;-66
2021/08/11 09:19:21;;;;;;;5.88;2.38;;;;;;;21.53;66.13;100939.78;5075298;28;20527;-67
2021/08/11 09:22:07;;;;;;;6.40;2.50;;;;;;;21.49;66.07;100938.56;5061074;28;20689;-67
2021/08/11 09:24:38;;;;;;;4.57;2.35;;;;;;;21.52;65.92;100943.47;5090436;28;20505;-67
2021/08/11 09:27:24;;;;;;;5.93;2.45;;;;;;;21.48;66.37;100943.09;5091209;28;20068;-68
2021/08/11 09:32:24;;;;;;;6.30;2.40;;;;;;;21.51;65.90;100939.19;5198882;22;20086;-65
2021/08/11 09:34:50;;;;;;;3.97;1.85;;;;;;;21.51;66.07;100931.16;5070321;28;20454;-65
2021/08/11 09:37:16;;;;;;;4.13;1.98;;;;;;;21.51;65.62;100942.66;5069149;28;20363;-65
2021/08/11 09:39:42;;;;;;;6.72;2.53;;;;;;;21.51;65.60;100937.31;5077194;28;20043;-65
2021/08/11 09:42:07;;;;;;;4.13;2.55;;;;;;;21.50;65.74;100930.34;5069360;28;20115;-65
2021/08/11 09:44:34;;;;;;;3.28;2.20;;;;;;;21.50;65.79;100930.34;5077499;28;20410;-65
2021/08/11 09:47:14;;;;;;;6.57;2.47;;;;;;;21.47;65.34;100933.44;5082182;28;20035;-65
2021/08/11 09:49:40;;;;;;;4.15;2.10;;;;;;;21.51;65.74;100941.84;5069634;28;20342;-65
2021/08/11 09:52:05;;;;;;;4.05;2.10;;;;;;;21.50;65.22;100927.69;5083115;28;20490;-65
2021/08/11 09:54:32;;;;;;;3.90;2.15;;;;;;;21.50;65.22;100924.19;5077018;28;20128;-65
2021/08/11 09:56:58;;;;;;;3.50;2.20;;;;;;;21.50;65.61;100925.00;5074077;28;20028;-65
2021/08/11 09:59:24;;;;;;;3.58;2.20;;;;;;;21.50;65.12;100925.00;5078399;28;20029;-65
2021/08/11 10:01:50;;;;;;;4.50;2.17;;;;;;;21.50;65.35;100919.66;5064643;28;20036;-65
2021/08/11 10:04:15;;;;;;;4.22;2.08;;;;;;;21.49;65.14;100915.34;5079098;28;20051;-64
2021/08/11 10:06:42;;;;;;;4.03;2.40;;;;;;;21.51;65.12;100915.16;5066988;28;20590;-65
2021/08/11 10:09:24;;;;;;;4.65;2.60;;;;;;;21.47;64.91;100920.09;5061540;28;20455;-65
2021/08/11 10:11:51;;;;;;;3.80;2.42;;;;;;;21.51;64.96;100926.66;5080311;28;20058;-64
2021/08/11 10:14:22;;;;;;;4.40;2.28;;;;;;;21.50;64.91;100919.66;5075790;28;20029;-67
2021/08/11 10:16:48;;;;;;;4.20;2.47;;;;;;;21.50;64.99;100918.84;5078753;28;20031;-68
2021/08/11 10:19:16;;;;;;;3.47;2.17;;;;;;;21.50;65.34;100925.00;5082120;28;20052;-68
2021/08/11 10:22:02;;;;;;;4.00;2.22;;;;;;;21.51;64.87;100928.50;5076798;28;20044;-65
2021/08/11 10:24:31;;;;;;;4.55;2.10;;;;;;;21.50;65.00;100929.53;5068518;28;20126;-68
2021/08/11 10:26:58;;;;;;;3.83;2.15;;;;;;;21.51;65.06;100934.66;5076984;28;20374;-68
2021/08/11 10:29:24;;;;;;;4.15;2.22;;;;;;;21.51;64.95;100934.66;5082546;28;20032;-67
2021/08/11 10:31:50;;;;;;;4.40;1.90;;;;;;;21.51;65.04;100934.66;5078244;28;20110;-67
2021/08/11 10:34:18;;;;;;;3.60;2.22;;;;;;;21.51;64.93;100931.97;5083368;28;20048;-68
2021/08/11 10:36:44;;;;;;;3.70;2.20;;;;;;;21.52;64.82;100927.47;5073819;28;20032;-67
2021/08/11 10:39:10;;;;;;;3.40;2.28;;;;;;;21.51;64.91;100931.16;5065185;28;20065;-65
2021/08/11 10:41:37;;;;;;;3.50;2.00;;;;;;;21.51;65.05;100926.66;5074450;28;20075;-65
2021/08/11 10:44:05;;;;;;;3.38;2.17;;;;;;;21.51;64.80;100926.66;5078697;28;20036;-67
2021/08/11 10:46:40;;;;;;;3.38;2.00;;;;;;;21.50;64.91;100922.34;5082217;28;20036;-68
2021/08/11 10:49:07;;;;;;;2.97;1.92;;;;;;;21.52;64.86;100925.63;5076803;28;20174;-68
2021/08/11 10:51:41;;;;;;;4.00;2.10;;;;;;;21.50;64.94;100925.00;5080787;28;20067;-67
2021/08/11 10:54:08;;;;;;;3.00;1.88;;;;;;;21.51;64.90;100929.31;5074072;28;20028;-68
2021/08/11 10:56:51;;;;;;;3.10;1.67;;;;;;;21.48;64.69;100929.72;5074296;28;20048;-67
2021/08/11 10:59:22;;;;;;;2.90;1.90;;;;;;;21.49;65.00;100944.72;5078578;28;20035;-67
2021/08/11 11:01:52;;;;;;;3.55;1.75;;;;;;;21.51;64.99;100964.00;5068418;28;20043;-67
2021/08/11 11:04:39;;;;;;;2.67;1.65;;;;;;;21.47;64.64;100972.66;5081838;28;20045;-67
2021/08/11 11:07:07;;;;;;;3.17;1.58;;;;;;;21.50;65.06;100983.72;5073823;28;20047;-65
2021/08/11 11:09:33;;;;;;;3.55;1.90;;;;;;;21.49;64.77;100971.41;5081376;28;20048;-65
2021/08/11 11:12:19;;;;;;;2.85;1.65;;;;;;;21.45;65.07;100974.66;5080262;28;20052;-65
2021/08/11 11:14:54;;;;;;;4.20;2.00;;;;;;;21.48;64.90;100980.44;5054300;28;20044;-64
2021/08/11 11:17:24;;;;;;;2.35;1.45;;;;;;;21.50;64.97;100982.91;5067794;28;20536;-65
2021/08/11 11:20:16;;;;;;;2.47;1.50;;;;;;;21.44;65.10;100976.53;5088615;28;20164;-64
2021/08/11 11:22:52;;;;;;;2.83;1.65;;;;;;;21.47;64.84;100976.13;5079164;28;20147;-65
2021/08/11 11:25:19;;;;;;;2.67;1.70;;;;;;;21.49;65.01;100970.59;5081142;28;20142;-65
2021/08/11 11:27:44;;;;;;;2.58;1.63;;;;;;;21.50;64.61;100977.56;5076191;28;20511;-65
2021/08/11 11:30:30;;;;;;;2.33;1.45;;;;;;;21.49;65.01;100982.09;5069846;28;20060;-65
2021/08/11 11:33:18;;;;;;;3.75;1.60;;;;;;;21.46;65.00;100987.84;5084613;28;20071;-65
2021/08/11 11:35:44;;;;;;;3.28;1.58;;;;;;;21.51;64.94;100987.22;5082734;28;20089;-65